Time;durP1;ratioP1;P1;durP2;ratioP2;P2;SDS_P1;SDS_P2;PMS_P1;PMS_P2;Temp;Humidity;BMP_temperature;BMP_pressure;BME280_temperature;BME280_humidity;BME280_pressure;Samples;Min_cycle;Max_cycle;Signal;HPM_P1;HPM_P2
2023/04/30 00:02:13;;;;;;;8.70;6.13;;;;;;;;;;5116161;28;20481;-71
2023/04/30 00:04:40;;;;;;;5.37;4.83;;;;;;;;;;5115337;28;20452;-71
2023/04/30 00:07:07;;;;;;;4.00;3.50;;;;;;;;;;5116126;28;20470;-71
2023/04/30 00:09:35;;;;;;;5.87;5.27;;;;;;;;;;5115535;28;20460;-71
2023/04/30 00:12:02;;;;;;;6.50;4.87;;;;;;;;;;5116101;28;20512;-71
2023/04/30 00:14:30;;;;;;;8.97;4.53;;;;;;;;;;5115826;28;20517;-71
2023/04/30 00:16:57;;;;;;;7.83;5.33;;;;;;;;;;5116055;28;20448;-71
2023/04/30 00:19:24;;;;;;;4.37;3.33;;;;;;;;;;5115817;28;20457;-71
2023/04/30 00:21:52;;;;;;;4.90;4.00;;;;;;;;;;5115531;28;20473;-71
2023/04/30 00:24:19;;;;;;;4.67;3.80;;;;;;;;;;5115614;28;20995;-71
2023/04/30 00:26:46;;;;;;;5.33;4.53;;;;;;;;;;5115736;28;20852;-71
2023/04/30 00:29:13;;;;;;;6.43;4.80;;;;;;;;;;5115727;28;20489;-71
2023/04/30 00:31:42;;;;;;;5.57;4.60;;;;;;;;;;5115476;28;20465;-71
2023/04/30 00:34:09;;;;;;;4.67;4.20;;;;;;;;;;5115329;28;20482;-71
2023/04/30 00:36:36;;;;;;;5.33;4.40;;;;;;;;;;5115716;28;20450;-71
2023/04/30 00:39:03;;;;;;;8.53;5.43;;;;;;;;;;5115437;28;20453;-71
2023/04/30 00:41:30;;;;;;;6.70;4.30;;;;;;;;;;5114821;28;20473;-71
2023/04/30 00:43:58;;;;;;;4.80;4.20;;;;;;;;;;5115241;28;20521;-71
2023/04/30 00:46:25;;;;;;;4.73;4.23;;;;;;;;;;5114712;28;20974;-71
2023/04/30 00:48:53;;;;;;;7.23;4.73;;;;;;;;;;5115460;28;20461;-71
2023/04/30 00:51:21;;;;;;;7.03;4.30;;;;;;;;;;5115166;28;20454;-71
2023/04/30 00:53:48;;;;;;;5.33;4.13;;;;;;;;;;5114882;28;20465;-71
2023/04/30 00:56:16;;;;;;;7.63;5.03;;;;;;;;;;5115198;28;20461;-71
2023/04/30 00:58:43;;;;;;;6.13;5.00;;;;;;;;;;5115115;28;20886;-71
2023/04/30 01:01:10;;;;;;;5.40;4.60;;;;;;;;;;5115063;28;20449;-71
2023/04/30 01:03:38;;;;;;;7.57;5.30;;;;;;;;;;5113680;28;20475;-71
2023/04/30 01:06:06;;;;;;;6.63;4.77;;;;;;;;;;5115035;28;20854;-71
2023/04/30 01:08:33;;;;;;;7.50;5.20;;;;;;;;;;5114816;28;20450;-71
2023/04/30 01:11:06;;;;;;;6.93;5.93;;;;;;;;;;5114956;28;20456;-71
2023/04/30 01:13:38;;;;;;;7.23;4.40;;;;;;;;;;5114678;28;20469;-71
2023/04/30 01:16:09;;;;;;;9.90;5.30;;;;;;;;;;5114407;28;20544;-71
2023/04/30 01:18:40;;;;;;;6.17;4.80;;;;;;;;;;5114636;28;20476;-71
2023/04/30 01:21:09;;;;;;;5.23;4.47;;;;;;;;;;5113957;28;20453;-71
2023/04/30 01:23:42;;;;;;;7.60;5.47;;;;;;;;;;5113729;28;20480;-71
2023/04/30 01:26:14;;;;;;;6.87;5.20;;;;;;;;;;5114572;28;20442;-71
2023/04/30 01:28:43;;;;;;;5.30;4.50;;;;;;;;;;5114505;28;20450;-71
2023/04/30 01:31:15;;;;;;;7.57;4.67;;;;;;;;;;5114437;28;20453;-71
2023/04/30 01:33:42;;;;;;;6.40;5.00;;;;;;;;;;5114012;28;20531;-71
2023/04/30 01:36:22;;;;;;;8.87;5.13;;;;;;;;;;5114398;28;20502;-71
2023/04/30 01:38:56;;;;;;;8.07;5.13;;;;;;;;;;5114435;28;20458;-71
2023/04/30 01:41:30;;;;;;;7.30;5.57;;;;;;;;;;5114224;28;20445;-71
2023/04/30 01:44:04;;;;;;;5.77;5.17;;;;;;;;;;5113996;28;20461;-71
2023/04/30 01:46:31;;;;;;;8.23;4.80;;;;;;;;;;5114116;28;20465;-71
2023/04/30 01:49:06;;;;;;;7.43;5.97;;;;;;;;;;5114152;28;20442;-71
2023/04/30 01:51:39;;;;;;;6.30;4.83;;;;;;;;;;5113628;28;20445;-71
2023/04/30 01:54:09;;;;;;;9.37;5.40;;;;;;;;;;5113795;28;20456;-71
2023/04/30 01:56:38;;;;;;;6.73;5.17;;;;;;;;;;5113943;28;20452;-71
2023/04/30 01:59:07;;;;;;;7.97;6.30;;;;;;;;;;5113806;28;20462;-71
2023/04/30 02:01:34;;;;;;;5.73;5.17;;;;;;;;;;5113128;28;20449;-71
2023/04/30 02:04:02;;;;;;;6.00;5.33;;;;;;;;;;5113643;28;20503;-71
2023/04/30 02:06:30;;;;;;;9.10;5.63;;;;;;;;;;5113775;28;20782;-71
2023/04/30 02:09:01;;;;;;;6.40;5.30;;;;;;;;;;5113933;28;20449;-71
2023/04/30 02:11:28;;;;;;;5.77;4.63;;;;;;;;;;5113779;28;20460;-70
2023/04/30 02:13:56;;;;;;;8.40;6.17;;;;;;;;;;5113417;28;20449;-72
2023/04/30 02:16:24;;;;;;;6.27;5.67;;;;;;;;;;5113344;28;20453;-71
2023/04/30 02:18:52;;;;;;;10.40;5.20;;;;;;;;;;5113569;28;20454;-71
2023/04/30 02:21:20;;;;;;;8.40;6.13;;;;;;;;;;5113294;28;20581;-71
2023/04/30 02:23:47;;;;;;;6.63;5.33;;;;;;;;;;5113128;28;20465;-71
2023/04/30 02:26:14;;;;;;;7.80;5.10;;;;;;;;;;5113490;28;20951;-70
2023/04/30 02:28:41;;;;;;;7.47;5.63;;;;;;;;;;5113608;28;20810;-71
2023/04/30 02:31:08;;;;;;;6.60;5.43;;;;;;;;;;5113297;28;20461;-71
2023/04/30 02:33:36;;;;;;;8.63;5.27;;;;;;;;;;5113016;28;20580;-71
2023/04/30 02:36:03;;;;;;;6.13;5.30;;;;;;;;;;5113324;28;20477;-71
2023/04/30 02:38:31;;;;;;;8.13;5.57;;;;;;;;;;5113394;28;20456;-71
2023/04/30 02:40:58;;;;;;;7.27;5.60;;;;;;;;;;5112879;28;20499;-71
2023/04/30 02:43:25;;;;;;;6.47;5.77;;;;;;;;;;5113277;28;20465;-71
2023/04/30 02:45:52;;;;;;;5.67;4.87;;;;;;;;;;5113305;28;20478;-71
2023/04/30 02:48:19;;;;;;;6.10;5.10;;;;;;;;;;5113210;28;20448;-71
2023/04/30 02:50:47;;;;;;;6.47;5.87;;;;;;;;;;5113366;28;20449;-71
2023/04/30 02:53:14;;;;;;;7.30;5.63;;;;;;;;;;5113049;28;20481;-71
2023/04/30 02:55:41;;;;;;;8.93;5.60;;;;;;;;;;5112925;28;20492;-71
2023/04/30 02:58:08;;;;;;;5.67;4.60;;;;;;;;;;5113035;28;20466;-71
2023/04/30 03:00:35;;;;;;;6.40;5.30;;;;;;;;;;5113126;28;20445;-71
2023/04/30 03:03:02;;;;;;;8.00;5.20;;;;;;;;;;5113062;28;20978;-71
2023/04/30 03:05:30;;;;;;;7.83;6.67;;;;;;;;;;5112916;28;20854;-71
2023/04/30 03:07:59;;;;;;;8.33;5.57;;;;;;;;;;5113271;28;20522;-71
2023/04/30 03:10:26;;;;;;;6.63;5.53;;;;;;;;;;5112345;28;20462;-70
2023/04/30 03:12:54;;;;;;;7.43;6.63;;;;;;;;;;5113109;28;20469;-70
2023/04/30 03:15:21;;;;;;;7.50;6.13;;;;;;;;;;5112164;28;20489;-71
2023/04/30 03:17:48;;;;;;;6.90;5.80;;;;;;;;;;5113265;28;20449;-71
2023/04/30 03:20:15;;;;;;;6.50;5.80;;;;;;;;;;5113057;28;20458;-71
2023/04/30 03:22:43;;;;;;;6.20;4.93;;;;;;;;;;5112462;28;20469;-71
2023/04/30 03:25:12;;;;;;;7.40;5.80;;;;;;;;;;5112687;28;20856;-71
2023/04/30 03:27:39;;;;;;;8.77;6.47;;;;;;;;;;5114716;28;20448;-71
2023/04/30 03:30:07;;;;;;;7.70;6.20;;;;;;;;;;5116780;28;20454;-71
2023/04/30 03:32:34;;;;;;;7.40;6.53;;;;;;;;;;5116611;28;20895;-71
2023/04/30 03:35:01;;;;;;;7.20;6.00;;;;;;;;;;5116676;28;20491;-71
2023/04/30 03:37:28;;;;;;;8.30;5.80;;;;;;;;;;5116772;28;20449;-71
2023/04/30 03:39:55;;;;;;;6.70;5.30;;;;;;;;;;5116756;28;20864;-71
2023/04/30 03:42:23;;;;;;;9.23;5.10;;;;;;;;;;5116458;28;20476;-71
2023/04/30 03:44:50;;;;;;;8.07;6.50;;;;;;;;;;5115791;28;20460;-71
2023/04/30 03:47:18;;;;;;;6.80;5.60;;;;;;;;;;5116756;28;20456;-71
2023/04/30 03:49:45;;;;;;;6.67;5.70;;;;;;;;;;5115968;28;20540;-71
2023/04/30 03:52:12;;;;;;;6.27;5.67;;;;;;;;;;5116336;28;20512;-71
2023/04/30 03:54:39;;;;;;;6.10;5.00;;;;;;;;;;5115978;28;20450;-71
2023/04/30 03:57:09;;;;;;;6.97;5.50;;;;;;;;;;5116354;28;20472;-71
2023/04/30 03:59:37;;;;;;;6.50;5.30;;;;;;;;;;5116290;28;20478;-71
2023/04/30 04:02:05;;;;;;;10.80;5.53;;;;;;;;;;5116209;28;20469;-71
2023/04/30 04:04:32;;;;;;;7.43;5.50;;;;;;;;;;5115924;28;20456;-71
2023/04/30 04:07:00;;;;;;;7.97;5.37;;;;;;;;;;5116090;28;20449;-71
2023/04/30 04:09:27;;;;;;;6.90;5.53;;;;;;;;;;5116094;28;20434;-71
2023/04/30 04:11:54;;;;;;;8.20;6.40;;;;;;;;;;5116001;28;20458;-71
2023/04/30 04:14:21;;;;;;;6.63;5.93;;;;;;;;;;5115844;28;20536;-71
2023/04/30 04:16:50;;;;;;;9.37;6.43;;;;;;;;;;5115857;28;20488;-71
2023/04/30 04:19:17;;;;;;;7.80;6.20;;;;;;;;;;5115390;28;20939;-71
2023/04/30 04:21:44;;;;;;;7.30;5.53;;;;;;;;;;5115567;28;20464;-71
2023/04/30 04:24:11;;;;;;;7.07;5.50;;;;;;;;;;5115459;28;20454;-71
2023/04/30 04:26:38;;;;;;;6.50;5.80;;;;;;;;;;5115415;28;20446;-71
2023/04/30 04:29:07;;;;;;;8.03;5.60;;;;;;;;;;5115822;28;20453;-71
2023/04/30 04:31:34;;;;;;;8.30;5.57;;;;;;;;;;5115609;28;20863;-71
2023/04/30 04:34:03;;;;;;;6.70;5.40;;;;;;;;;;5115578;28;20472;-71
2023/04/30 04:36:32;;;;;;;6.27;5.67;;;;;;;;;;5115430;28;20489;-71
2023/04/30 04:39:01;;;;;;;7.40;6.20;;;;;;;;;;5115347;28;20823;-71
2023/04/30 04:41:28;;;;;;;8.00;6.47;;;;;;;;;;5115469;28;20496;-71
2023/04/30 04:43:56;;;;;;;6.90;5.53;;;;;;;;;;5115199;28;20473;-71
2023/04/30 04:46:23;;;;;;;10.00;6.53;;;;;;;;;;5115389;28;20473;-70
2023/04/30 04:48:50;;;;;;;7.27;5.90;;;;;;;;;;5115332;28;20457;-70
2023/04/30 04:51:18;;;;;;;6.90;5.80;;;;;;;;;;5115139;28;20449;-71
2023/04/30 04:53:45;;;;;;;6.90;5.60;;;;;;;;;;5115113;28;20461;-71
2023/04/30 04:56:12;;;;;;;6.63;5.93;;;;;;;;;;5114708;28;21013;-71
2023/04/30 04:58:40;;;;;;;6.17;5.20;;;;;;;;;;5114977;28;20457;-70
2023/04/30 05:01:08;;;;;;;5.07;4.47;;;;;;;;;;5115022;28;20540;-70
2023/04/30 05:03:35;;;;;;;7.17;5.40;;;;;;;;;;5114797;28;20465;-71
2023/04/30 05:06:03;;;;;;;6.30;5.70;;;;;;;;;;5115028;28;20449;-71
2023/04/30 05:08:31;;;;;;;5.07;4.47;;;;;;;;;;5114867;28;20953;-71
2023/04/30 05:10:58;;;;;;;7.40;5.80;;;;;;;;;;5114994;28;20452;-71
2023/04/30 05:13:25;;;;;;;6.10;4.80;;;;;;;;;;5114703;28;20470;-71
2023/04/30 05:15:53;;;;;;;6.13;5.37;;;;;;;;;;5114666;28;20486;-70
2023/04/30 05:18:20;;;;;;;7.03;6.07;;;;;;;;;;5114567;28;20458;-70
2023/04/30 05:20:48;;;;;;;6.33;5.13;;;;;;;;;;5114769;28;20507;-70
2023/04/30 05:23:15;;;;;;;5.93;5.20;;;;;;;;;;5114189;28;20469;-71
2023/04/30 05:25:44;;;;;;;6.77;5.30;;;;;;;;;;5114111;28;20450;-71
2023/04/30 05:28:11;;;;;;;6.70;5.37;;;;;;;;;;5114538;28;20457;-71
2023/04/30 05:30:38;;;;;;;5.73;5.03;;;;;;;;;;5114486;28;20957;-71
2023/04/30 05:33:05;;;;;;;7.07;5.67;;;;;;;;;;5114355;28;20474;-70
2023/04/30 05:35:34;;;;;;;5.70;5.03;;;;;;;;;;5114040;28;20481;-70
2023/04/30 05:38:02;;;;;;;6.03;5.10;;;;;;;;;;5114358;28;20954;-70
2023/04/30 05:40:29;;;;;;;5.60;5.10;;;;;;;;;;5114280;28;20522;-71
2023/04/30 05:42:58;;;;;;;6.43;5.00;;;;;;;;;;5114278;28;20458;-71
2023/04/30 05:45:25;;;;;;;5.70;5.10;;;;;;;;;;5113960;28;20953;-70
2023/04/30 05:47:52;;;;;;;8.23;6.50;;;;;;;;;;5114215;28;20457;-70
2023/04/30 05:50:19;;;;;;;11.63;5.93;;;;;;;;;;5113550;28;20445;-70
2023/04/30 05:52:47;;;;;;;7.07;6.10;;;;;;;;;;5114052;28;20481;-71
2023/04/30 05:55:14;;;;;;;6.27;5.67;;;;;;;;;;5113802;28;20445;-71
2023/04/30 05:57:41;;;;;;;6.20;5.20;;;;;;;;;;5113738;28;20465;-71
2023/04/30 06:00:11;;;;;;;6.03;5.43;;;;;;;;;;5113952;28;20457;-70
2023/04/30 06:02:38;;;;;;;9.60;5.50;;;;;;;;;;5114056;28;20853;-70
2023/04/30 06:05:05;;;;;;;6.27;5.33;;;;;;;;;;5113758;28;20445;-70
2023/04/30 06:07:32;;;;;;;6.43;5.50;;;;;;;;;;5113945;28;20442;-70
2023/04/30 06:10:00;;;;;;;9.00;5.77;;;;;;;;;;5113848;28;20454;-70
2023/04/30 06:12:27;;;;;;;6.10;5.60;;;;;;;;;;5113581;28;20474;-70
2023/04/30 06:14:54;;;;;;;6.07;5.17;;;;;;;;;;5113428;28;20461;-71
2023/04/30 06:17:22;;;;;;;7.37;5.60;;;;;;;;;;5113672;28;20493;-70
2023/04/30 06:19:50;;;;;;;6.53;5.90;;;;;;;;;;5113760;28;21007;-70
2023/04/30 06:22:17;;;;;;;6.77;5.10;;;;;;;;;;5113137;28;20465;-71
2023/04/30 06:24:44;;;;;;;7.40;5.83;;;;;;;;;;5112923;28;20855;-70
2023/04/30 06:27:11;;;;;;;5.53;4.97;;;;;;;;;;5113544;28;20446;-71
2023/04/30 06:29:38;;;;;;;6.30;5.03;;;;;;;;;;5113569;28;20445;-70
2023/04/30 06:32:06;;;;;;;6.77;5.23;;;;;;;;;;5113449;28;20522;-70
2023/04/30 06:34:35;;;;;;;8.37;5.87;;;;;;;;;;5113283;28;20548;-71
2023/04/30 06:37:02;;;;;;;6.13;5.53;;;;;;;;;;5113395;28;20550;-70
2023/04/30 06:39:29;;;;;;;6.03;4.53;;;;;;;;;;5113298;28;20847;-70
2023/04/30 06:41:56;;;;;;;5.07;4.57;;;;;;;;;;5113247;28;20530;-70
2023/04/30 06:44:23;;;;;;;5.47;4.90;;;;;;;;;;5113184;28;20848;-70
2023/04/30 06:46:50;;;;;;;5.70;5.20;;;;;;;;;;5113354;28;21050;-70
2023/04/30 06:49:17;;;;;;;6.50;5.40;;;;;;;;;;5113280;28;20981;-70
2023/04/30 06:51:46;;;;;;;5.10;4.30;;;;;;;;;;5113170;28;20445;-70
2023/04/30 06:54:13;;;;;;;4.83;4.00;;;;;;;;;;5112897;28;20946;-70
2023/04/30 06:56:40;;;;;;;6.17;5.57;;;;;;;;;;5113161;28;20869;-71
2023/04/30 06:59:07;;;;;;;5.27;4.77;;;;;;;;;;5113192;28;20462;-71
2023/04/30 07:01:34;;;;;;;6.47;5.80;;;;;;;;;;5114755;28;20449;-71
2023/04/30 07:04:01;;;;;;;5.70;5.00;;;;;;;;;;5117145;28;20457;-71
2023/04/30 07:06:29;;;;;;;6.07;5.00;;;;;;;;;;5117146;28;20450;-71
2023/04/30 07:08:57;;;;;;;7.50;6.03;;;;;;;;;;5117324;28;20449;-70
2023/04/30 07:11:24;;;;;;;7.80;6.30;;;;;;;;;;5117229;28;20453;-70
2023/04/30 07:13:52;;;;;;;9.80;5.80;;;;;;;;;;5116845;28;20477;-71
2023/04/30 07:16:19;;;;;;;7.57;5.33;;;;;;;;;;5116934;28;20481;-70
2023/04/30 07:18:48;;;;;;;6.90;6.20;;;;;;;;;;5117242;28;20546;-70
2023/04/30 07:21:15;;;;;;;8.13;6.17;;;;;;;;;;5116896;28;20489;-71
2023/04/30 07:23:43;;;;;;;6.10;5.10;;;;;;;;;;5115952;28;20504;-71
2023/04/30 07:26:11;;;;;;;7.00;6.10;;;;;;;;;;5117022;28;20930;-70
2023/04/30 07:28:38;;;;;;;5.97;5.37;;;;;;;;;;5116900;28;20457;-70
2023/04/30 07:31:06;;;;;;;7.47;6.00;;;;;;;;;;5116821;28;20454;-71
2023/04/30 07:33:33;;;;;;;7.77;5.67;;;;;;;;;;5116494;28;20480;-71
2023/04/30 07:36:00;;;;;;;6.60;5.50;;;;;;;;;;5116621;28;20489;-71
2023/04/30 07:38:28;;;;;;;7.37;6.03;;;;;;;;;;5116743;28;20483;-71
2023/04/30 07:40:55;;;;;;;7.07;5.83;;;;;;;;;;5116709;28;20460;-70
2023/04/30 07:43:23;;;;;;;6.10;5.50;;;;;;;;;;5116500;28;20501;-70
2023/04/30 07:45:52;;;;;;;7.07;6.37;;;;;;;;;;5116356;28;20462;-71
2023/04/30 07:48:19;;;;;;;7.07;5.90;;;;;;;;;;5116449;28;20453;-71
2023/04/30 07:50:48;;;;;;;11.50;6.43;;;;;;;;;;5116509;28;20461;-71
2023/04/30 07:53:15;;;;;;;8.60;6.33;;;;;;;;;;5116326;28;20474;-71
2023/04/30 07:55:42;;;;;;;5.87;4.90;;;;;;;;;;5116243;28;20449;-70
2023/04/30 07:58:09;;;;;;;5.57;4.97;;;;;;;;;;5116233;28;20453;-71
2023/04/30 08:00:38;;;;;;;7.80;5.30;;;;;;;;;;5116223;28;20498;-71
2023/04/30 08:03:05;;;;;;;7.57;6.00;;;;;;;;;;5116265;28;20970;-71
2023/04/30 08:05:32;;;;;;;6.13;5.50;;;;;;;;;;5115899;28;20824;-71
2023/04/30 08:07:59;;;;;;;6.37;5.73;;;;;;;;;;5116182;28;20793;-71
2023/04/30 08:10:26;;;;;;;6.47;4.57;;;;;;;;;;5116107;28;20542;-71
2023/04/30 08:12:54;;;;;;;6.10;5.40;;;;;;;;;;5115260;28;20477;-71
2023/04/30 08:15:21;;;;;;;5.83;5.23;;;;;;;;;;5115742;28;20454;-71
2023/04/30 08:17:51;;;;;;;5.23;4.70;;;;;;;;;;5116023;28;20511;-71
2023/04/30 08:20:18;;;;;;;6.23;5.00;;;;;;;;;;5116013;28;20536;-71
2023/04/30 08:22:46;;;;;;;5.40;4.80;;;;;;;;;;5115533;28;20465;-71
2023/04/30 08:25:13;;;;;;;5.13;4.63;;;;;;;;;;5115404;28;20450;-71
2023/04/30 08:27:40;;;;;;;5.17;4.67;;;;;;;;;;5115835;28;20469;-71
2023/04/30 08:30:08;;;;;;;7.60;5.73;;;;;;;;;;5115878;28;20458;-71
2023/04/30 08:32:35;;;;;;;5.10;4.63;;;;;;;;;;5115652;28;20472;-71
2023/04/30 08:35:04;;;;;;;4.90;4.50;;;;;;;;;;5115616;28;20523;-71
2023/04/30 08:37:31;;;;;;;5.60;4.70;;;;;;;;;;5115381;28;20486;-71
2023/04/30 08:39:58;;;;;;;5.63;5.13;;;;;;;;;;5115835;28;20629;-71
2023/04/30 08:42:26;;;;;;;5.27;4.40;;;;;;;;;;5115328;28;21229;-71
2023/04/30 08:44:53;;;;;;;6.43;5.07;;;;;;;;;;5115211;28;20454;-71
2023/04/30 08:47:21;;;;;;;7.00;4.50;;;;;;;;;;5115355;28;20934;-71
2023/04/30 08:49:48;;;;;;;7.40;4.90;;;;;;;;;;5115490;28;20457;-71
2023/04/30 08:52:17;;;;;;;5.97;5.43;;;;;;;;;;5115425;28;20470;-71
2023/04/30 08:54:45;;;;;;;5.37;4.60;;;;;;;;;;5114879;28;20457;-71
2023/04/30 08:57:12;;;;;;;8.03;6.80;;;;;;;;;;5114851;28;20920;-71
2023/04/30 08:59:39;;;;;;;7.90;4.67;;;;;;;;;;5115080;28;20445;-71
2023/04/30 09:02:06;;;;;;;9.13;4.37;;;;;;;;;;5115142;28;20932;-71
2023/04/30 09:04:34;;;;;;;4.77;4.23;;;;;;;;;;5114752;28;20449;-71
2023/04/30 09:07:03;;;;;;;5.23;4.83;;;;;;;;;;5115045;28;20445;-71
2023/04/30 09:09:38;;;;;;;3.63;3.33;;;;;;;;;;5114711;28;20442;-71
2023/04/30 09:12:16;;;;;;;8.03;3.80;;;;;;;;;;5114996;28;20479;-71
2023/04/30 09:14:58;;;;;;;4.37;3.23;;;;;;;;;;5114841;28;20986;-71
2023/04/30 09:17:25;;;;;;;3.10;2.80;;;;;;;;;;5114593;28;20528;-71
2023/04/30 09:19:52;;;;;;;6.07;3.10;;;;;;;;;;5114928;28;20445;-71
2023/04/30 09:22:20;;;;;;;4.27;3.87;;;;;;;;;;5114191;28;20481;-71
2023/04/30 09:24:49;;;;;;;3.47;3.17;;;;;;;;;;5113593;28;20492;-71
2023/04/30 09:27:17;;;;;;;5.73;3.97;;;;;;;;;;5114541;28;20726;-71
2023/04/30 09:29:45;;;;;;;4.23;3.60;;;;;;;;;;5114677;28;20446;-71
2023/04/30 09:32:12;;;;;;;3.87;3.50;;;;;;;;;;5114354;28;20475;-71
2023/04/30 09:34:39;;;;;;;4.70;3.90;;;;;;;;;;5114178;28;20846;-71
2023/04/30 09:37:07;;;;;;;4.70;3.80;;;;;;;;;;5114315;28;20857;-71
2023/04/30 09:39:34;;;;;;;4.60;3.53;;;;;;;;;;5114278;28;20481;-71
2023/04/30 09:42:09;;;;;;;4.07;3.70;;;;;;;;;;5114112;28;20501;-71
2023/04/30 09:44:37;;;;;;;6.50;4.20;;;;;;;;;;5113834;28;20449;-71
2023/04/30 09:47:13;;;;;;;4.70;3.97;;;;;;;;;;5110829;27;20587;-72
2023/04/30 09:49:42;;;;;;;4.30;3.90;;;;;;;;;;5110816;28;20477;-72
2023/04/30 09:52:10;;;;;;;3.60;3.30;;;;;;;;;;5110838;28;20494;-72
2023/04/30 09:54:37;;;;;;;5.33;4.43;;;;;;;;;;5110683;28;20442;-72
2023/04/30 09:57:08;;;;;;;4.20;3.23;;;;;;;;;;5110741;28;20442;-72
2023/04/30 09:59:38;;;;;;;4.27;3.80;;;;;;;;;;5110580;28;21000;-72
2023/04/30 10:02:05;;;;;;;3.50;3.20;;;;;;;;;;5110584;28;20481;-71
2023/04/30 10:04:35;;;;;;;3.20;2.90;;;;;;;;;;5110275;28;20951;-71
2023/04/30 10:07:04;;;;;;;4.23;3.70;;;;;;;;;;5110275;28;20581;-71
2023/04/30 10:09:36;;;;;;;7.37;3.20;;;;;;;;;;5110349;28;20512;-71
2023/04/30 10:12:04;;;;;;;3.80;3.50;;;;;;;;;;5110403;28;20497;-71
2023/04/30 10:14:33;;;;;;;4.77;4.37;;;;;;;;;;5110175;28;20464;-72
2023/04/30 10:17:04;;;;;;;5.20;4.80;;;;;;;;;;5110293;28;20456;-72
2023/04/30 10:19:32;;;;;;;4.80;4.30;;;;;;;;;;5110282;28;20505;-71
2023/04/30 10:22:00;;;;;;;6.23;5.40;;;;;;;;;;5109552;28;20478;-71
2023/04/30 10:24:28;;;;;;;5.20;4.70;;;;;;;;;;5109445;28;20485;-72
2023/04/30 10:26:56;;;;;;;5.00;4.33;;;;;;;;;;5110130;28;20489;-71
2023/04/30 10:29:23;;;;;;;7.17;5.17;;;;;;;;;;5110101;28;20457;-71
2023/04/30 10:31:51;;;;;;;9.83;6.93;;;;;;;;;;5109981;28;20450;-71
2023/04/30 10:34:23;;;;;;;7.30;6.13;;;;;;;;;;5109603;28;20486;-72
2023/04/30 10:36:52;;;;;;;5.57;5.07;;;;;;;;;;5109972;28;20826;-71
2023/04/30 10:39:21;;;;;;;6.70;5.90;;;;;;;;;;5109732;28;20958;-71
2023/04/30 10:41:48;;;;;;;7.10;5.40;;;;;;;;;;5109778;28;20453;-71
2023/04/30 10:44:16;;;;;;;6.83;5.30;;;;;;;;;;5109506;28;20869;-71
2023/04/30 10:46:43;;;;;;;5.40;4.90;;;;;;;;;;5109763;28;20489;-71
2023/04/30 10:49:13;;;;;;;7.67;5.13;;;;;;;;;;5109739;28;20442;-71
2023/04/30 10:51:47;;;;;;;5.17;4.13;;;;;;;;;;5109498;28;20535;-71
2023/04/30 10:54:17;;;;;;;6.20;4.97;;;;;;;;;;5109291;28;20454;-71
2023/04/30 10:56:47;;;;;;;8.43;5.87;;;;;;;;;;5106192;28;20443;-71
2023/04/30 10:59:15;;;;;;;5.27;4.73;;;;;;;;;;5095876;28;20450;-71
2023/04/30 11:01:55;;;;;;;4.67;3.93;;;;;;;;;;5095702;28;20924;-71
2023/04/30 11:04:23;;;;;;;5.27;4.50;;;;;;;;;;5095590;28;20878;-71
2023/04/30 11:06:50;;;;;;;5.17;4.67;;;;;;;;;;5095667;28;20490;-71
2023/04/30 11:09:17;;;;;;;8.53;5.43;;;;;;;;;;5095695;28;20457;-71
2023/04/30 11:11:49;;;;;;;5.83;5.23;;;;;;;;;;5095550;28;20447;-71
2023/04/30 11:14:21;;;;;;;7.73;4.73;;;;;;;;;;5095268;28;20459;-72
2023/04/30 11:16:50;;;;;;;11.40;4.67;;;;;;;;;;5095445;28;20457;-71
2023/04/30 11:19:17;;;;;;;5.70;5.20;;;;;;;;;;5095537;28;20542;-71
2023/04/30 11:22:11;;;;;;;5.37;4.40;;;;;;;;;;5094821;28;20683;-72
2023/04/30 11:24:54;;;;;;;5.60;4.00;;;;;;;;;;5094579;28;20820;-72
2023/04/30 11:27:24;;;;;;;6.80;2.80;;;;;;;;;;5095250;28;20489;-72
2023/04/30 11:29:51;;;;;;;5.20;4.70;;;;;;;;;;5095459;28;20447;-71
2023/04/30 11:32:18;;;;;;;6.63;4.27;;;;;;;;;;5095164;28;20502;-71
2023/04/30 11:34:46;;;;;;;4.73;3.40;;;;;;;;;;5095134;28;20803;-72
2023/04/30 11:37:14;;;;;;;6.30;3.70;;;;;;;;;;5094980;28;20447;-72
2023/04/30 11:39:42;;;;;;;7.87;4.00;;;;;;;;;;5095250;28;20822;-72
2023/04/30 11:42:10;;;;;;;5.70;4.03;;;;;;;;;;5095022;28;20470;-72
2023/04/30 11:44:38;;;;;;;3.83;3.43;;;;;;;;;;5094841;28;20458;-72
2023/04/30 11:47:06;;;;;;;4.43;4.03;;;;;;;;;;5094834;28;20525;-72
2023/04/30 11:49:33;;;;;;;4.87;4.40;;;;;;;;;;5094988;28;20848;-71
2023/04/30 11:52:00;;;;;;;5.27;3.90;;;;;;;;;;5094735;28;20510;-71
2023/04/30 11:54:27;;;;;;;4.07;3.63;;;;;;;;;;5094466;28;20482;-72
2023/04/30 11:57:00;;;;;;;4.90;3.63;;;;;;;;;;5094819;28;20447;-71
2023/04/30 11:59:28;;;;;;;5.73;3.70;;;;;;;;;;5094678;28;20824;-72
2023/04/30 12:01:57;;;;;;;5.20;3.90;;;;;;;;;;5094689;28;20481;-72
2023/04/30 12:04:24;;;;;;;4.23;3.83;;;;;;;;;;5094254;28;20454;-72
2023/04/30 12:06:51;;;;;;;5.10;3.80;;;;;;;;;;5094573;28;21002;-72
2023/04/30 12:09:18;;;;;;;4.97;3.57;;;;;;;;;;5093492;28;20454;-72
2023/04/30 12:11:48;;;;;;;5.43;3.73;;;;;;;;;;5094441;28;20461;-72
2023/04/30 12:14:15;;;;;;;6.93;3.40;;;;;;;;;;5094215;28;20478;-72
2023/04/30 12:16:47;;;;;;;3.93;3.50;;;;;;;;;;5094420;28;20447;-71
2023/04/30 12:19:16;;;;;;;3.40;3.10;;;;;;;;;;5094328;28;20827;-72
2023/04/30 12:21:45;;;;;;;4.00;3.50;;;;;;;;;;5093952;28;20824;-72
2023/04/30 12:24:12;;;;;;;6.30;4.07;;;;;;;;;;5093800;28;20461;-72
2023/04/30 12:26:40;;;;;;;5.97;4.47;;;;;;;;;;5094078;28;20490;-72
2023/04/30 12:29:09;;;;;;;4.37;3.90;;;;;;;;;;5094252;28;20828;-72
2023/04/30 12:31:37;;;;;;;5.10;4.20;;;;;;;;;;5093998;28;20454;-72
2023/04/30 12:34:04;;;;;;;4.70;4.30;;;;;;;;;;5094003;28;20827;-72
2023/04/30 12:36:35;;;;;;;5.73;5.23;;;;;;;;;;5094038;28;20473;-72
2023/04/30 12:39:03;;;;;;;5.73;5.00;;;;;;;;;;5093968;28;20459;-72
2023/04/30 12:41:31;;;;;;;5.47;4.97;;;;;;;;;;5093781;28;20451;-72
2023/04/30 12:44:13;;;;;;;5.20;4.80;;;;;;;;;;5093800;28;20972;-72
2023/04/30 12:46:40;;;;;;;7.07;5.80;;;;;;;;;;5093684;28;20482;-72
2023/04/30 12:49:07;;;;;;;6.40;5.80;;;;;;;;;;5093796;28;20451;-71
2023/04/30 12:51:39;;;;;;;7.27;6.57;;;;;;;;;;5093565;28;20453;-72
2023/04/30 12:54:06;;;;;;;6.30;5.13;;;;;;;;;;5093603;28;20458;-72
2023/04/30 12:56:33;;;;;;;5.50;4.90;;;;;;;;;;5093462;28;20446;-71
2023/04/30 12:59:00;;;;;;;5.83;5.23;;;;;;;;;;5093570;28;20462;-72
2023/04/30 13:01:27;;;;;;;6.30;5.50;;;;;;;;;;5093504;28;20970;-72
2023/04/30 13:03:54;;;;;;;5.13;4.47;;;;;;;;;;5093328;28;20542;-72
2023/04/30 13:06:22;;;;;;;5.43;4.47;;;;;;;;;;5093373;28;20474;-72
2023/04/30 13:08:50;;;;;;;6.77;5.33;;;;;;;;;;5093447;28;20476;-72
2023/04/30 13:11:17;;;;;;;6.70;5.30;;;;;;;;;;5093378;28;20454;-72
2023/04/30 13:13:44;;;;;;;8.57;6.53;;;;;;;;;;5093143;28;20478;-72
2023/04/30 13:16:11;;;;;;;5.90;5.23;;;;;;;;;;5093453;28;20504;-72
2023/04/30 13:18:39;;;;;;;7.10;5.10;;;;;;;;;;5093296;28;20451;-72
2023/04/30 13:21:06;;;;;;;5.20;4.40;;;;;;;;;;5093073;28;20454;-72
2023/04/30 13:23:33;;;;;;;5.33;4.83;;;;;;;;;;5092666;28;20971;-72
2023/04/30 13:26:01;;;;;;;5.27;3.90;;;;;;;;;;5093112;28;20860;-71
2023/04/30 13:28:28;;;;;;;5.20;4.70;;;;;;;;;;5093307;28;20446;-71
2023/04/30 13:30:55;;;;;;;5.30;4.80;;;;;;;;;;5093273;28;20442;-71
2023/04/30 13:33:22;;;;;;;3.70;3.17;;;;;;;;;;5093196;28;20466;-71
2023/04/30 13:35:49;;;;;;;7.37;4.83;;;;;;;;;;5093097;28;20442;-71
2023/04/30 13:38:16;;;;;;;5.00;4.50;;;;;;;;;;5093116;28;20450;-72
2023/04/30 13:40:43;;;;;;;5.40;3.70;;;;;;;;;;5093106;28;20450;-71
2023/04/30 13:43:12;;;;;;;4.30;3.90;;;;;;;;;;5093154;28;20462;-71
2023/04/30 13:45:39;;;;;;;6.50;3.10;;;;;;;;;;5092844;28;20462;-71
2023/04/30 13:48:07;;;;;;;5.53;4.00;;;;;;;;;;5093027;28;20535;-71
2023/04/30 13:50:35;;;;;;;5.23;3.83;;;;;;;;;;5092884;28;20829;-71
2023/04/30 13:53:02;;;;;;;10.20;3.90;;;;;;;;;;5092971;28;20474;-71
2023/04/30 13:55:29;;;;;;;5.87;3.30;;;;;;;;;;5092679;28;20450;-71
2023/04/30 13:57:57;;;;;;;4.57;4.17;;;;;;;;;;5092945;28;20462;-71
2023/04/30 14:00:26;;;;;;;4.67;3.70;;;;;;;;;;5093044;28;20928;-72
2023/04/30 14:02:54;;;;;;;7.27;3.80;;;;;;;;;;5092779;28;20509;-71
2023/04/30 14:05:21;;;;;;;5.30;3.83;;;;;;;;;;5092610;28;20454;-71
2023/04/30 14:07:48;;;;;;;4.60;3.97;;;;;;;;;;5092845;28;20490;-72
2023/04/30 14:10:15;;;;;;;4.63;3.80;;;;;;;;;;5092845;28;20454;-72
2023/04/30 14:12:43;;;;;;;4.17;3.63;;;;;;;;;;5092662;28;20474;-71
2023/04/30 14:15:11;;;;;;;4.90;3.47;;;;;;;;;;5092770;28;20449;-71
2023/04/30 14:17:39;;;;;;;3.83;3.43;;;;;;;;;;5092747;28;20470;-71
2023/04/30 14:20:07;;;;;;;3.63;3.27;;;;;;;;;;5092787;28;20466;-71
2023/04/30 14:22:37;;;;;;;4.30;3.40;;;;;;;;;;5092286;28;20474;-71
2023/04/30 14:25:04;;;;;;;5.00;3.70;;;;;;;;;;5092659;28;21031;-71
2023/04/30 14:27:31;;;;;;;3.60;3.30;;;;;;;;;;5092530;28;20529;-71
2023/04/30 14:29:58;;;;;;;11.67;3.10;;;;;;;;;;5092815;28;20450;-71
2023/04/30 14:32:26;;;;;;;5.80;3.43;;;;;;;;;;5093687;28;20470;-71
2023/04/30 14:34:54;;;;;;;4.67;2.90;;;;;;;;;;5096538;28;20454;-71
2023/04/30 14:37:22;;;;;;;3.83;3.53;;;;;;;;;;5096670;28;20934;-71
2023/04/30 14:39:49;;;;;;;5.37;3.27;;;;;;;;;;5096577;28;20451;-71
2023/04/30 14:42:16;;;;;;;4.73;3.63;;;;;;;;;;5096256;28;20470;-71
2023/04/30 14:44:43;;;;;;;3.50;3.20;;;;;;;;;;5095955;28;20451;-71
2023/04/30 14:47:11;;;;;;;5.97;3.17;;;;;;;;;;5096097;28;20486;-71
2023/04/30 14:49:39;;;;;;;4.90;3.80;;;;;;;;;;5096233;28;20550;-72